Airfield :
LOGIN :

Register | Disclaimer

   EN    FR    IT 

 










Legend :    VFR   Marginal VFR   IFR   Intensive IFR   Very Intensive IFR
Visi :
Ceiling :
>= 8 km
>= 3000ft
5 to 8 km
1000 to 3000 ft
1500m to 5 km
500 to 1000 ft
800 to 1500m
200 to 500 ft
< 800m
< 200 ft
Symbols :   Thunderstorms  Fog  Heavy snow  Heavy precipitations  Wind > 20 kt
SIGMETs :     Misc.  Thunderstorms  Icing  Turbulence  Mountain Waves  Volcanic Ashes






- Airport Elevation : 220 ft
- IATA code : CWL


EGFF - Cardiff Rhoose

CURRENT METAR :
  • 200050Z AUTO 04008KT 9999 NCD 08/07 Q1006

EXPIRED METARs :
  • 200020Z AUTO 01008KT 9999 NCD 08/07 Q1006
  • 192350Z AUTO 02008KT 9999 //////TCU 08/07 Q1006
  • 192320Z AUTO 02007KT 9999 //////TCU 07/06 Q1006
  • 192250Z AUTO 01006KT 9999 //////TCU 07/06 Q1006
  • 192220Z AUTO 02003KT 9999 //////TCU 07/06 Q1005

TAF TAF EGFF
Valid from the 20 at 00:00 until the 21 at 00:00 UTC


192257Z 2000/2024 01007KT 9999 FEW008
PROB30
TEMPO 2000/2005 7000 BKN008
TEMPO 2019/2024 8000 -SHRA BKN012
ATIS : +44 1446 729 319



MET'MAP, your aeronautical weather chart ! - Copyright ORBIFLY December 2007 - Disclaimer

ORBIFLY MET'MAP TEAM :

Programming & Development : Alexandra Zaïnal
Concept & Development : Baudouin d'Aumeries
Co-Development & Prog : Marc-Olivier Méhu
Technical & hardware support : Manuel Goepfert

Contact : metmap@orbifly.com




SOURCES & CREDITS :

   NOAA